Airfield :
LOGIN :

Register | Disclaimer

   EN    FR    IT 

 










Legend :    VFR   Marginal VFR   IFR   Intensive IFR   Very Intensive IFR
Visi :
Ceiling :
>= 8 km
>= 3000ft
5 to 8 km
1000 to 3000 ft
1500m to 5 km
500 to 1000 ft
800 to 1500m
200 to 500 ft
< 800m
< 200 ft
Symbols :   Thunderstorms  Fog  Heavy snow  Heavy precipitations  Wind > 20 kt
SIGMETs :     Misc.  Thunderstorms  Icing  Turbulence  Mountain Waves  Volcanic Ashes







- Airport Elevation : 268 ft
- IATA code : BFS
- Download approach charts


EGAA - Belfast Aldergrove

CURRENT METAR :
  • 211120Z 29017G27KT 9999 SCT016 SCT027 12/08 Q1002

EXPIRED METARs :
  • 211050Z 29016KT 9999 SCT014 SCT030 12/09 Q1001
  • 211020Z 29015KT 9999 FEW014 SCT020 BKN037 10/08 Q1000
  • 210950Z 29012KT 9999 SCT009 BKN015 10/09 Q0999
  • 210920Z 24014KT 9999 SCT007 BKN011 09/08 Q0998
  • 210850Z 22015KT 9999 -DZ BKN010 08/06 Q0998
  • 210820Z 22013KT 9999 SCT010 BKN014 07/06 Q0998

TAF TAF EGAA
Valid from the 21 at 12:00 until the 22 at 12:00 UTC


211053Z 2112/2212 30013KT 9999 FEW020 SCT035
PROB40
TEMPO 2112/2118 30018G28KT 7000 SHRA
BECMG 2118/2121 24010KT
No reported NOTAMs for that airfield.
2 SIGMETs reported for the Scottish FIR (EGPX) :
 
Severe turbulence
EGPX SIGMET 04 VALID 211200/211600 EGRR
EGPX SCOTTISH FIR SEV TURB FCST E OF LINE N5944 E00027 - N5500 E00144 SFC/FL060 MOV NE 15KT NC=
Severe turbulence
EGPX SIGMET 03 VALID 210900/211200 EGRR
EGPX SCOTTISH FIR SEV TURB FCST SE OF LINE N5500 W00330 - N6100 W00018 SFC/FL060 MOV E 15KT NC=



MET'MAP, your aeronautical weather chart ! - Copyright ORBIFLY December 2007 - Disclaimer

ORBIFLY MET'MAP TEAM :

Programming & Development : Alexandra Zaïnal
Concept & Development : Baudouin d'Aumeries
Co-Development & Prog : Marc-Olivier Méhu
Technical & hardware support : Manuel Goepfert

Contact : metmap@orbifly.com




SOURCES & CREDITS :

   NOAA